createdAt,value
2023-02-04T00:01:03.206Z,0.80
2023-02-04T00:03:29.906Z,1.13
2023-02-04T00:05:56.631Z,0.50
2023-02-04T00:08:23.565Z,1.27
2023-02-04T00:10:51.633Z,0.70
2023-02-04T00:13:18.327Z,1.00
2023-02-04T00:15:45.044Z,0.73
2023-02-04T00:18:11.715Z,0.50
2023-02-04T00:20:38.367Z,1.42
2023-02-04T00:23:05.124Z,0.90
2023-02-04T00:25:31.814Z,0.85
2023-02-04T00:27:59.903Z,1.23
2023-02-04T00:30:26.574Z,0.70
2023-02-04T00:32:53.257Z,0.93
2023-02-04T00:35:19.940Z,0.60
2023-02-04T00:37:46.627Z,1.42
2023-02-04T00:40:13.502Z,1.00
2023-02-04T00:42:40.224Z,0.70
2023-02-04T00:45:09.309Z,0.98
2023-02-04T00:47:36.030Z,1.15
2023-02-04T00:50:02.710Z,1.20
2023-02-04T00:52:29.479Z,0.70
2023-02-04T00:54:56.201Z,0.57
2023-02-04T00:57:22.940Z,1.00
2023-02-04T00:59:49.616Z,1.10
2023-02-04T01:02:18.520Z,1.02
2023-02-04T01:04:45.390Z,1.33
2023-02-04T01:07:12.144Z,1.67
2023-02-04T01:09:38.942Z,0.50
2023-02-04T01:12:05.681Z,1.23
2023-02-04T01:14:32.336Z,0.85
2023-02-04T01:16:59.035Z,1.53
2023-02-04T01:19:27.150Z,0.80
2023-02-04T01:21:53.836Z,0.93
2023-02-04T01:24:20.527Z,0.52
2023-02-04T01:26:47.171Z,1.00
2023-02-04T01:29:13.842Z,0.80
2023-02-04T01:31:40.554Z,0.88
2023-02-04T01:34:07.232Z,1.33
2023-02-04T01:36:35.236Z,0.60
2023-02-04T01:39:02.064Z,0.50
2023-02-04T01:41:28.768Z,0.80
2023-02-04T01:43:55.584Z,0.82
2023-02-04T01:46:22.345Z,0.88
2023-02-04T01:48:49.010Z,1.00
2023-02-04T01:51:25.928Z,0.70
2023-02-04T01:53:54.027Z,0.80
2023-02-04T01:56:22.671Z,0.88
2023-02-04T01:58:50.118Z,0.68
2023-02-04T02:01:34.877Z,0.82
2023-02-04T02:04:02.110Z,0.60
2023-02-04T02:06:29.710Z,0.80
2023-02-04T02:09:01.255Z,0.70
2023-02-04T02:11:28.514Z,0.80
2023-02-04T02:13:55.622Z,0.93
2023-02-04T02:16:22.808Z,1.02
2023-02-04T02:18:50.199Z,0.80
2023-02-04T02:21:24.118Z,0.98
2023-02-04T02:23:54.495Z,1.15
2023-02-04T02:26:23.021Z,0.90
2023-02-04T02:28:50.540Z,1.83
2023-02-04T02:31:19.247Z,1.33
2023-02-04T02:33:46.848Z,0.85
2023-02-04T02:36:13.690Z,1.20
2023-02-04T02:38:40.693Z,1.05
2023-02-04T02:41:08.823Z,0.77
2023-02-04T02:43:36.681Z,1.30
2023-02-04T02:46:03.656Z,0.95
2023-02-04T02:48:30.401Z,0.93
2023-02-04T02:50:57.106Z,0.73
2023-02-04T02:53:23.893Z,0.93
2023-02-04T02:55:51.490Z,1.17
2023-02-04T02:58:24.665Z,1.15
2023-02-04T03:00:51.656Z,0.75
2023-02-04T03:03:23.252Z,1.50
2023-02-04T03:05:54.420Z,0.80
2023-02-04T03:08:21.880Z,1.00
2023-02-04T03:10:48.805Z,0.85
2023-02-04T03:13:16.543Z,0.60
2023-02-04T03:15:47.379Z,0.77
2023-02-04T03:18:16.100Z,0.90
2023-02-04T03:20:43.629Z,0.93
2023-02-04T03:23:10.879Z,1.85
2023-02-04T03:25:37.574Z,1.00
2023-02-04T03:28:04.780Z,1.10
2023-02-04T03:30:32.137Z,0.63
2023-02-04T03:33:00.346Z,0.60
2023-02-04T03:35:27.315Z,0.70
2023-02-04T03:37:54.095Z,0.80
2023-02-04T03:40:20.859Z,0.73
2023-02-04T03:42:47.551Z,1.00
2023-02-04T03:45:14.386Z,0.60
2023-02-04T03:47:41.070Z,0.95
2023-02-04T03:50:09.571Z,0.98
2023-02-04T03:52:36.215Z,0.80
2023-02-04T03:55:02.880Z,1.73
2023-02-04T03:57:29.571Z,0.60
2023-02-04T03:59:56.238Z,0.98
2023-02-04T04:02:22.964Z,0.80
2023-02-04T04:04:49.681Z,1.02
2023-02-04T04:07:18.494Z,1.15
2023-02-04T04:09:45.150Z,0.60
2023-02-04T04:12:11.824Z,1.15
2023-02-04T04:14:38.476Z,0.80
2023-02-04T04:17:05.114Z,0.60
2023-02-04T04:19:31.783Z,0.82
2023-02-04T04:21:58.581Z,0.90
2023-02-04T04:24:26.733Z,0.52
2023-02-04T04:26:53.410Z,0.60
2023-02-04T04:29:20.109Z,0.65
2023-02-04T04:31:46.838Z,0.63
2023-02-04T04:34:13.553Z,0.80
2023-02-04T04:36:40.217Z,0.98
2023-02-04T04:39:06.932Z,0.60
2023-02-04T04:41:34.998Z,0.57
2023-02-04T04:44:02.227Z,0.68
2023-02-04T04:46:29.002Z,0.63
2023-02-04T04:48:55.728Z,0.75
2023-02-04T04:51:22.507Z,0.88
2023-02-04T04:53:49.196Z,0.57
2023-02-04T04:56:15.892Z,0.55
2023-02-04T04:58:43.971Z,0.67
2023-02-04T05:01:10.692Z,0.60
2023-02-04T05:03:37.430Z,0.50
2023-02-04T05:06:04.205Z,0.88
2023-02-04T05:08:30.924Z,0.52
2023-02-04T05:10:57.615Z,0.70
2023-02-04T05:13:24.257Z,0.63
2023-02-04T05:15:52.310Z,0.52
2023-02-04T05:18:18.976Z,0.85
2023-02-04T05:20:45.629Z,0.77
2023-02-04T05:23:12.325Z,0.50
2023-02-04T05:25:38.986Z,0.68
2023-02-04T05:28:05.687Z,1.00
2023-02-04T05:30:32.735Z,0.73
2023-02-04T05:33:00.934Z,0.60
2023-02-04T05:35:27.641Z,0.63
2023-02-04T05:37:54.433Z,0.85
2023-02-04T05:40:21.132Z,0.55
2023-02-04T05:42:47.772Z,0.57
2023-02-04T05:45:16.086Z,0.40
2023-02-04T05:47:42.797Z,0.40
2023-02-04T05:50:11.281Z,0.25
2023-02-04T05:52:38.009Z,0.20
2023-02-04T05:55:05.396Z,0.20
2023-02-04T05:57:32.122Z,0.20
2023-02-04T05:59:58.962Z,0.27
2023-02-04T06:02:25.639Z,0.20
2023-02-04T06:04:52.319Z,0.30
2023-02-04T06:07:20.343Z,0.30
2023-02-04T06:09:46.993Z,0.20
2023-02-04T06:12:13.661Z,0.20
2023-02-04T06:14:40.308Z,0.70
2023-02-04T06:17:06.957Z,0.57
2023-02-04T06:19:33.644Z,0.63
2023-02-04T06:22:00.312Z,0.30
2023-02-04T06:24:28.321Z,0.33
2023-02-04T06:26:54.997Z,0.20
2023-02-04T06:29:21.742Z,0.22
2023-02-04T06:31:48.592Z,0.15
2023-02-04T06:34:15.582Z,0.30
2023-02-04T06:36:42.556Z,0.20
2023-02-04T06:39:09.274Z,0.17
2023-02-04T06:41:37.322Z,0.30
2023-02-04T06:44:04.056Z,0.30
2023-02-04T06:46:30.752Z,0.40
2023-02-04T06:48:57.490Z,0.30
2023-02-04T06:51:24.298Z,0.30
2023-02-04T06:53:50.976Z,0.40
2023-02-04T06:56:17.773Z,0.40
2023-02-04T06:58:45.811Z,0.32
2023-02-04T07:01:12.503Z,0.30
2023-02-04T07:03:39.208Z,0.40
2023-02-04T07:06:06.286Z,0.40
2023-02-04T07:08:32.961Z,0.30
2023-02-04T07:10:59.623Z,0.40
2023-02-04T07:13:26.332Z,0.30
2023-02-04T07:15:54.436Z,0.50
2023-02-04T07:18:21.335Z,0.47
2023-02-04T07:20:48.082Z,0.35
2023-02-04T07:23:14.831Z,0.40
2023-02-04T07:25:41.484Z,0.40
2023-02-04T07:28:08.189Z,0.40
2023-02-04T07:30:35.306Z,0.65
2023-02-04T07:33:03.609Z,0.40
2023-02-04T07:35:30.276Z,0.50
2023-02-04T07:37:57.030Z,0.50
2023-02-04T07:40:23.678Z,0.35
2023-02-04T07:42:50.328Z,0.40
2023-02-04T07:45:17.228Z,0.40
2023-02-04T07:47:43.895Z,0.40
2023-02-04T07:50:11.940Z,0.37
2023-02-04T07:52:38.648Z,0.40
2023-02-04T07:55:05.946Z,0.60
2023-02-04T07:57:32.652Z,0.45
2023-02-04T07:59:59.288Z,0.40
2023-02-04T08:02:26.172Z,0.30
2023-02-04T08:04:52.986Z,0.20
2023-02-04T08:07:21.066Z,0.60
2023-02-04T08:09:47.718Z,0.30
2023-02-04T08:12:14.432Z,0.68
2023-02-04T08:14:41.223Z,0.67
2023-02-04T08:17:07.990Z,0.50
2023-02-04T08:19:34.663Z,0.70
2023-02-04T08:22:01.324Z,0.80
2023-02-04T08:24:29.410Z,0.70
2023-02-04T08:26:56.178Z,0.60
2023-02-04T08:29:22.839Z,0.80
2023-02-04T08:31:49.607Z,0.68
2023-02-04T08:34:16.429Z,0.80
2023-02-04T08:36:44.225Z,0.60
2023-02-04T08:39:11.118Z,0.93
2023-02-04T08:41:39.383Z,0.43
2023-02-04T08:44:06.063Z,0.50
2023-02-04T08:46:32.982Z,0.45
2023-02-04T08:48:59.714Z,0.40
2023-02-04T08:51:26.389Z,0.50
2023-02-04T08:53:53.070Z,2.60
2023-02-04T08:56:19.812Z,1.00
2023-02-04T08:58:47.845Z,0.70
2023-02-04T09:01:14.990Z,2.15
2023-02-04T09:03:41.698Z,0.50
2023-02-04T09:06:08.431Z,0.30
2023-02-04T09:08:35.336Z,0.40
2023-02-04T09:11:02.084Z,0.30
2023-02-04T09:13:28.737Z,0.32
2023-02-04T09:15:57.004Z,0.30
2023-02-04T09:18:23.827Z,0.45
2023-02-04T09:20:51.446Z,0.30
2023-02-04T09:23:18.682Z,0.38
2023-02-04T09:25:45.926Z,0.30
2023-02-04T09:28:14.108Z,0.30
2023-02-04T09:30:42.288Z,0.68
2023-02-04T09:33:12.006Z,0.57
2023-02-04T09:35:39.136Z,0.30
2023-02-04T09:38:06.068Z,0.30
2023-02-04T09:40:36.399Z,0.30
2023-02-04T09:43:05.635Z,0.40
2023-02-04T09:45:35.021Z,0.30
2023-02-04T09:48:04.315Z,0.30
2023-02-04T09:50:33.340Z,0.30
2023-02-04T09:53:04.187Z,0.20
2023-02-04T09:55:33.180Z,0.30
2023-02-04T09:57:59.872Z,0.32
2023-02-04T10:00:28.916Z,0.30
2023-02-04T10:02:57.179Z,0.30
2023-02-04T10:05:28.460Z,0.37
2023-02-04T10:07:57.273Z,0.20
2023-02-04T10:10:25.670Z,0.20
2023-02-04T10:12:55.140Z,0.20
2023-02-04T10:15:22.114Z,0.20
2023-02-04T10:17:52.083Z,0.30
2023-02-04T10:20:21.024Z,0.20
2023-02-04T10:22:50.279Z,0.30
2023-02-04T10:25:19.983Z,0.30
2023-02-04T10:27:52.366Z,0.30
2023-02-04T10:30:21.132Z,0.20
2023-02-04T10:32:50.774Z,0.30
2023-02-04T10:35:19.757Z,0.20
2023-02-04T10:37:47.155Z,0.30
2023-02-04T10:40:28.478Z,0.30
2023-02-04T10:42:55.130Z,0.30
2023-02-04T10:45:23.218Z,0.30
2023-02-04T10:47:51.921Z,0.30
2023-02-04T10:50:20.322Z,0.30
2023-02-04T10:52:51.075Z,0.28
2023-02-04T10:55:19.923Z,0.33
2023-02-04T10:57:49.561Z,0.20
2023-02-04T11:00:18.944Z,0.30
2023-02-04T11:02:50.402Z,0.20
2023-02-04T11:05:18.928Z,0.30
2023-02-04T11:07:46.907Z,0.27
2023-02-04T11:10:16.024Z,0.30
2023-02-04T11:12:45.284Z,0.47
2023-02-04T11:15:38.579Z,0.50
2023-02-04T11:18:06.704Z,0.40
2023-02-04T11:20:34.470Z,0.30
2023-02-04T11:23:15.429Z,0.30
2023-02-04T11:25:42.081Z,0.30
2023-02-04T11:28:15.721Z,0.30
2023-02-04T11:30:43.870Z,0.40
2023-02-04T11:33:24.550Z,0.50
2023-02-04T11:36:01.604Z,0.40
2023-02-04T11:38:31.977Z,0.30
2023-02-04T11:40:59.801Z,0.45
2023-02-04T11:43:27.404Z,0.30
2023-02-04T11:46:04.646Z,0.30
2023-02-04T11:48:32.105Z,0.30
2023-02-04T11:51:01.301Z,0.50
2023-02-04T11:53:30.208Z,0.30
2023-02-04T11:55:57.358Z,0.30
2023-02-04T11:58:24.337Z,0.20
2023-02-04T12:00:51.028Z,0.25
2023-02-04T12:03:24.469Z,0.30
2023-02-04T12:05:52.033Z,0.30
2023-02-04T12:08:27.560Z,0.30
2023-02-04T12:11:02.029Z,0.20
2023-02-04T12:13:30.826Z,0.25
2023-02-04T12:16:02.278Z,0.30
2023-02-04T12:18:31.990Z,0.28
2023-02-04T12:20:59.806Z,0.40
2023-02-04T12:23:28.174Z,0.30
2023-02-04T12:25:55.313Z,0.40
2023-02-04T12:28:22.430Z,0.40
2023-02-04T12:30:49.566Z,0.40
2023-02-04T12:33:16.450Z,0.32
2023-02-04T12:35:44.602Z,0.40
2023-02-04T12:38:11.283Z,0.40
2023-02-04T12:40:38.006Z,0.50
2023-02-04T12:43:04.856Z,0.40
2023-02-04T12:45:32.168Z,0.40
2023-02-04T12:47:59.221Z,0.30
2023-02-04T12:50:26.265Z,0.50
2023-02-04T12:52:55.351Z,0.57
2023-02-04T12:55:23.159Z,0.30
2023-02-04T12:57:50.064Z,0.47
2023-02-04T13:00:18.033Z,0.40
2023-02-04T13:02:44.817Z,0.40
2023-02-04T13:05:12.320Z,0.40
2023-02-04T13:07:39.368Z,0.30
2023-02-04T13:10:08.560Z,0.32
2023-02-04T13:12:35.451Z,0.40
2023-02-04T13:15:02.160Z,0.45
2023-02-04T13:17:28.843Z,0.40
2023-02-04T13:19:55.518Z,0.30
2023-02-04T13:22:22.234Z,0.35
2023-02-04T13:24:48.885Z,0.40
2023-02-04T13:27:17.006Z,0.30
2023-02-04T13:29:43.684Z,0.30
2023-02-04T13:32:10.516Z,0.30
2023-02-04T13:34:37.416Z,0.30
2023-02-04T13:37:04.220Z,0.30
2023-02-04T13:39:30.865Z,0.50
2023-02-04T13:41:57.538Z,0.30
2023-02-04T13:44:25.724Z,0.50
2023-02-04T13:46:52.614Z,0.30
2023-02-04T13:49:19.473Z,0.40
2023-02-04T13:51:48.884Z,0.30
2023-02-04T13:54:15.559Z,0.50
2023-02-04T13:56:42.336Z,0.47
2023-02-04T13:59:09.063Z,0.40
2023-02-04T14:01:37.143Z,0.50
2023-02-04T14:04:04.114Z,0.40
2023-02-04T14:06:30.937Z,0.32
2023-02-04T14:08:57.625Z,0.38
2023-02-04T14:11:24.297Z,0.30
2023-02-04T14:13:50.957Z,0.30
2023-02-04T14:16:17.737Z,0.40
2023-02-04T14:18:45.868Z,0.40
2023-02-04T14:21:12.524Z,0.35
2023-02-04T14:23:39.201Z,0.40
2023-02-04T14:26:05.876Z,0.40
2023-02-04T14:28:32.533Z,0.43
2023-02-04T14:30:59.272Z,0.50
2023-02-04T14:33:26.116Z,0.50
2023-02-04T14:35:54.160Z,0.68
2023-02-04T14:38:20.836Z,0.40
2023-02-04T14:40:47.539Z,0.40
2023-02-04T14:43:14.226Z,0.50
2023-02-04T14:45:41.031Z,0.40
2023-02-04T14:48:08.371Z,0.35
2023-02-04T14:50:35.314Z,0.50
2023-02-04T14:53:03.573Z,0.30
2023-02-04T14:55:30.276Z,0.50
2023-02-04T14:57:56.979Z,0.30
2023-02-04T15:00:23.849Z,0.30
2023-02-04T15:02:50.768Z,0.30
2023-02-04T15:05:17.620Z,0.30
2023-02-04T15:07:44.282Z,0.50
2023-02-04T15:10:14.900Z,0.50
2023-02-04T15:12:42.089Z,0.30
2023-02-04T15:15:09.570Z,0.40
2023-02-04T15:17:36.205Z,0.47
2023-02-04T15:20:02.951Z,0.40
2023-02-04T15:22:29.735Z,0.40
2023-02-04T15:24:56.493Z,0.45
2023-02-04T15:27:24.704Z,0.30
2023-02-04T15:29:51.567Z,0.47
2023-02-04T15:32:18.285Z,0.80
2023-02-04T15:34:44.953Z,0.32
2023-02-04T15:37:11.656Z,0.70
2023-02-04T15:39:38.554Z,0.50
2023-02-04T15:42:05.433Z,0.65
2023-02-04T15:44:33.483Z,0.50
2023-02-04T15:47:00.152Z,0.50
2023-02-04T15:49:26.841Z,0.50
2023-02-04T15:51:53.529Z,0.70
2023-02-04T15:54:20.174Z,0.50
2023-02-04T15:56:46.854Z,0.60
2023-02-04T15:59:13.507Z,0.85
2023-02-04T16:01:41.662Z,1.33
2023-02-04T16:04:08.365Z,2.40
2023-02-04T16:06:35.055Z,3.83
2023-02-04T16:09:01.766Z,3.60
2023-02-04T16:11:28.405Z,3.08
2023-02-04T16:13:55.091Z,2.70
2023-02-04T16:16:21.871Z,1.00
2023-02-04T16:18:49.947Z,0.70
2023-02-04T16:21:16.611Z,0.70
2023-02-04T16:23:43.632Z,0.50
2023-02-04T16:26:10.335Z,0.50
2023-02-04T16:28:37.098Z,0.40
2023-02-04T16:31:04.104Z,0.60
2023-02-04T16:33:30.829Z,0.60
2023-02-04T16:36:01.958Z,0.45
2023-02-04T16:38:29.701Z,0.43
2023-02-04T16:40:56.846Z,0.50
2023-02-04T16:43:24.167Z,0.50
2023-02-04T16:45:51.158Z,0.50
2023-02-04T16:48:18.074Z,0.60
2023-02-04T16:50:44.749Z,0.60
2023-02-04T16:53:12.795Z,0.60
2023-02-04T16:55:39.430Z,0.50
2023-02-04T16:58:06.117Z,0.80
2023-02-04T17:00:32.962Z,0.70
2023-02-04T17:02:59.675Z,0.45
2023-02-04T17:05:26.403Z,0.50
2023-02-04T17:07:53.087Z,0.50
2023-02-04T17:10:21.370Z,0.57
2023-02-04T17:12:48.013Z,0.60
2023-02-04T17:15:14.700Z,0.60
2023-02-04T17:17:41.399Z,0.40
2023-02-04T17:20:09.014Z,0.50
2023-02-04T17:22:35.676Z,0.52
2023-02-04T17:25:02.420Z,0.50
2023-02-04T17:27:30.466Z,0.40
2023-02-04T17:29:57.163Z,0.87
2023-02-04T17:32:23.840Z,1.10
2023-02-04T17:34:50.522Z,1.70
2023-02-04T17:37:17.294Z,1.40
2023-02-04T17:39:43.993Z,1.73
2023-02-04T17:42:10.664Z,1.70
2023-02-04T17:44:38.726Z,1.83
2023-02-04T17:47:05.431Z,2.30
2023-02-04T17:49:33.648Z,2.03
2023-02-04T17:52:01.005Z,2.22
2023-02-04T17:54:27.817Z,2.60
2023-02-04T17:56:56.495Z,2.65
2023-02-04T17:59:23.542Z,3.35
2023-02-04T18:01:51.763Z,2.75
2023-02-04T18:04:18.591Z,3.92
2023-02-04T18:06:45.901Z,3.47
2023-02-04T18:09:15.365Z,4.05
2023-02-04T18:11:42.150Z,4.18
2023-02-04T18:14:14.250Z,3.75
2023-02-04T18:16:40.996Z,3.20
2023-02-04T18:19:17.039Z,2.27
2023-02-04T18:21:44.120Z,3.28
2023-02-04T18:24:15.541Z,4.72
2023-02-04T18:26:44.796Z,4.90
2023-02-04T18:29:27.294Z,4.30
2023-02-04T18:31:56.199Z,5.03
2023-02-04T18:34:32.793Z,4.68
2023-02-04T18:37:00.552Z,5.15
2023-02-04T18:39:28.586Z,5.15
2023-02-04T18:41:57.420Z,4.80
2023-02-04T18:44:29.886Z,3.30
2023-02-04T18:46:56.638Z,3.42
2023-02-04T18:49:27.778Z,3.58
2023-02-04T18:51:54.888Z,2.85
2023-02-04T18:54:39.441Z,2.95
2023-02-04T18:57:35.442Z,2.60
2023-02-04T19:00:27.281Z,2.67
2023-02-04T19:02:57.304Z,2.55
2023-02-04T19:05:31.743Z,2.25
2023-02-04T19:08:26.171Z,2.03
2023-02-04T19:10:54.976Z,1.87
2023-02-04T19:13:23.618Z,2.00
2023-02-04T19:15:56.587Z,2.45
2023-02-04T19:18:26.672Z,3.92
2023-02-04T19:20:54.890Z,3.92
2023-02-04T19:23:23.767Z,4.13
2023-02-04T19:25:51.744Z,5.85
2023-02-04T19:28:26.792Z,12.95
2023-02-04T19:30:58.763Z,14.40
2023-02-04T19:33:27.665Z,16.98
2023-02-04T19:35:55.765Z,12.80
2023-02-04T19:38:36.665Z,13.57
2023-02-04T19:41:18.496Z,12.75
2023-02-04T19:43:45.170Z,11.90
2023-02-04T19:46:20.412Z,12.60
2023-02-04T19:48:47.169Z,11.93
2023-02-04T19:51:32.907Z,9.60
2023-02-04T19:54:11.840Z,9.23
2023-02-04T19:56:39.794Z,6.13
2023-02-04T19:59:22.519Z,5.28
2023-02-04T20:01:50.028Z,4.77
2023-02-04T20:04:20.077Z,4.55
2023-02-04T20:06:48.554Z,3.95
2023-02-04T20:09:17.381Z,4.88
2023-02-04T20:12:08.489Z,9.45
2023-02-04T20:14:47.449Z,23.23
2023-02-04T20:17:23.418Z,29.35
2023-02-04T20:19:50.774Z,27.35
2023-02-04T20:22:45.021Z,21.85
2023-02-04T20:25:39.590Z,14.80
2023-02-04T20:28:34.460Z,13.00
2023-02-04T20:31:01.826Z,11.65
2023-02-04T20:33:32.905Z,8.48
2023-02-04T20:36:38.205Z,6.00
2023-02-04T20:39:40.107Z,5.68
2023-02-04T20:42:29.668Z,5.07
2023-02-04T20:45:09.824Z,5.47
2023-02-04T20:47:36.518Z,5.90
2023-02-04T20:50:43.956Z,5.70
2023-02-04T20:53:21.674Z,7.70
2023-02-04T20:55:52.125Z,8.93
2023-02-04T20:58:21.335Z,9.38
2023-02-04T21:00:49.497Z,9.25
2023-02-04T21:03:25.825Z,9.32
2023-02-04T21:05:53.710Z,10.50
2023-02-04T21:08:33.344Z,12.53
2023-02-04T21:11:02.215Z,9.50
2023-02-04T21:13:29.024Z,8.13
2023-02-04T21:15:55.892Z,7.65
2023-02-04T21:18:22.593Z,8.00
2023-02-04T21:20:49.284Z,7.73
2023-02-04T21:23:16.000Z,8.68
2023-02-04T21:25:42.639Z,6.85
2023-02-04T21:28:10.781Z,7.65
2023-02-04T21:30:37.620Z,7.88
2023-02-04T21:33:04.301Z,7.07
2023-02-04T21:35:31.346Z,7.50
2023-02-04T21:37:58.162Z,8.73
2023-02-04T21:40:25.558Z,8.50
2023-02-04T21:42:52.844Z,9.05
2023-02-04T21:45:23.114Z,9.73
2023-02-04T21:47:50.599Z,9.13
2023-02-04T21:50:18.609Z,9.77
2023-02-04T21:52:45.866Z,8.60
2023-02-04T21:55:14.913Z,8.95
2023-02-04T21:57:41.754Z,9.07
2023-02-04T22:00:09.923Z,9.02
2023-02-04T22:02:38.088Z,8.85
2023-02-04T22:05:06.800Z,7.63
2023-02-04T22:07:33.849Z,8.75
2023-02-04T22:10:01.109Z,8.70
2023-02-04T22:12:27.846Z,9.00
2023-02-04T22:14:54.519Z,9.35
2023-02-04T22:17:21.271Z,9.10
2023-02-04T22:19:49.442Z,9.55
2023-02-04T22:22:16.093Z,9.37
2023-02-04T22:24:42.781Z,9.85
2023-02-04T22:27:09.637Z,9.95
2023-02-04T22:29:36.317Z,11.05
2023-02-04T22:32:03.039Z,11.20
2023-02-04T22:34:29.689Z,9.47
2023-02-04T22:36:58.016Z,9.52
2023-02-04T22:39:24.923Z,9.45
2023-02-04T22:41:51.635Z,9.07
2023-02-04T22:44:18.407Z,8.93
2023-02-04T22:46:47.373Z,7.73
2023-02-04T22:49:14.395Z,8.35
2023-02-04T22:51:41.174Z,9.50
2023-02-04T22:54:09.248Z,8.88
2023-02-04T22:56:35.913Z,8.77
2023-02-04T22:59:02.755Z,9.20
2023-02-04T23:01:29.559Z,9.27
2023-02-04T23:03:56.328Z,9.88
2023-02-04T23:06:23.072Z,10.15
2023-02-04T23:08:50.148Z,10.80
2023-02-04T23:11:18.707Z,10.10
2023-02-04T23:13:45.579Z,10.10
2023-02-04T23:16:12.343Z,9.95
2023-02-04T23:18:39.069Z,10.30
2023-02-04T23:21:06.280Z,9.75
2023-02-04T23:23:33.502Z,9.10
2023-02-04T23:26:00.300Z,9.82
2023-02-04T23:28:28.531Z,9.85
2023-02-04T23:30:55.269Z,9.07
2023-02-04T23:33:21.993Z,8.70
2023-02-04T23:35:48.854Z,8.57
2023-02-04T23:38:15.695Z,9.18
2023-02-04T23:40:42.382Z,8.93
2023-02-04T23:43:10.850Z,7.72
2023-02-04T23:45:39.120Z,6.43
2023-02-04T23:48:06.711Z,7.13
2023-02-04T23:50:33.468Z,7.05
2023-02-04T23:53:00.128Z,6.95
2023-02-04T23:55:27.144Z,6.32
2023-02-04T23:57:53.893Z,6.60
